»·PEaware :: N27JP KDLO-KEMT

N27JP :: KDLO-KEMT

FLIGHT INFORMATION

Flight Status: Arrived
Operator: Privately registered:
United States
More flights under this callsign
Pilot: Weston J. (31543)
Aircraft: BEECH AIRCRAFT BONANZA
(BE36)
More flights by this aircraft type
Origin: KDLO Delano Mun
United States
Destination: KEMT El Monte
United States
More flights between these airports :: More routes between these airports
Route:
File this flight plan on PilotEdge
Remarks:
Altitude:
(Current/Filed)
9,500ft
Speed:
(Current/Filed)
140kts
Departed: 18-Oct-20 03:21 PM
Arrived: 18-Oct-20 04:14 PM
Distance/Time
Traveled:
116nm/0:53
Distance/Time
To Go:
Arrived

Flight Plot

Page will automatically refresh every two minutes.


Map Options




Map Legend


Flown Route
Filed Route
Departure Airport
Arrival Airport
Navaid (VOR, NDB)
Fix

Horizontal Profiles

Position Reports

Time Latitude Longitude Heading Altitude Ground
Speed
18-Oct-20 15:17 35.745005 -119.237970 338 317ft 16kts
18-Oct-20 15:18 35.750455 -119.240140 359 318ft 20kts
18-Oct-20 15:19 35.751399 -119.240129 0 318ft 0kts
18-Oct-20 15:20 35.750763 -119.238983 158 318ft 38kts
18-Oct-20 15:21 35.725748 -119.226342 163 911ft 119kts
18-Oct-20 15:22 35.706152 -119.258809 240 1843ft 133kts
18-Oct-20 15:23 35.682911 -119.265176 111 2552ft 126kts
18-Oct-20 15:24 35.669954 -119.224757 110 3245ft 127kts
18-Oct-20 15:24 35.658813 -119.193477 145 3849ft 124kts
18-Oct-20 15:26 35.622282 -119.170370 156 4655ft 127kts
18-Oct-20 15:27 35.589578 -119.153176 157 5353ft 127kts
18-Oct-20 15:27 35.562546 -119.138785 157 5936ft 126kts
18-Oct-20 15:29 35.525149 -119.118878 157 6756ft 124kts
18-Oct-20 15:30 35.493771 -119.102190 158 7456ft 121kts
18-Oct-20 15:30 35.468751 -119.087233 154 8042ft 117kts
18-Oct-20 15:31 35.441281 -119.069390 154 8731ft 103kts
18-Oct-20 15:32 35.414210 -119.052496 157 9096ft 123kts
18-Oct-20 15:33 35.382149 -119.032902 133 9521ft 142kts
18-Oct-20 15:34 35.344673 -119.007079 153 9518ft 161kts
18-Oct-20 15:35 35.304899 -118.981520 154 9523ft 159kts
18-Oct-20 15:36 35.265621 -118.956288 153 9500ft 159kts
18-Oct-20 15:37 35.226569 -118.931213 154 9502ft 157kts
18-Oct-20 15:38 35.187820 -118.906385 153 9506ft 156kts
18-Oct-20 15:39 35.149450 -118.881814 153 9510ft 155kts
18-Oct-20 15:40 35.111253 -118.857376 154 9513ft 155kts
18-Oct-20 15:41 35.073017 -118.832955 153 9515ft 154kts
18-Oct-20 15:42 35.035013 -118.808689 153 9517ft 154kts
18-Oct-20 15:43 34.996874 -118.784364 153 9518ft 154kts
18-Oct-20 15:44 34.958562 -118.759971 153 9525ft 157kts
18-Oct-20 15:45 34.919994 -118.735435 153 9510ft 155kts
18-Oct-20 15:46 34.881731 -118.711107 153 9512ft 154kts
18-Oct-20 15:47 34.845711 -118.688225 154 9510ft 136kts
18-Oct-20 15:48 34.813090 -118.667539 154 9510ft 130kts
18-Oct-20 15:49 34.780947 -118.647169 154 9508ft 130kts
18-Oct-20 15:50 34.748800 -118.626806 154 9508ft 131kts
18-Oct-20 15:51 34.713971 -118.604778 153 9505ft 152kts
18-Oct-20 15:52 34.675695 -118.580589 153 9487ft 156kts
18-Oct-20 15:53 34.637499 -118.556469 153 9495ft 155kts
18-Oct-20 15:54 34.599558 -118.532552 153 9495ft 155kts
18-Oct-20 15:55 34.560893 -118.508182 153 9480ft 155kts
18-Oct-20 15:56 34.522180 -118.483824 153 9486ft 157kts
18-Oct-20 15:57 34.483558 -118.460021 155 9476ft 155kts
18-Oct-20 15:58 34.444263 -118.437159 155 9469ft 157kts
18-Oct-20 15:59 34.404854 -118.414180 154 9394ft 161kts
18-Oct-20 16:00 34.361992 -118.388157 151 8944ft 179kts
18-Oct-20 16:01 34.324519 -118.348303 132 8407ft 179kts
18-Oct-20 16:02 34.292695 -118.303628 130 7893ft 171kts
18-Oct-20 16:03 34.264176 -118.256668 119 6870ft 172kts
18-Oct-20 16:04 34.244677 -118.213163 119 5738ft 134kts
18-Oct-20 16:05 34.228520 -118.180158 119 5440ft 96kts
18-Oct-20 16:06 34.212184 -118.155381 139 5449ft 130kts
18-Oct-20 16:07 34.180756 -118.128526 145 4232ft 119kts
18-Oct-20 16:08 34.153342 -118.110107 178 2757ft 107kts
18-Oct-20 16:09 34.128303 -118.099973 146 1932ft 85kts
18-Oct-20 16:10 34.120128 -118.072910 105 1570ft 89kts
18-Oct-20 16:11 34.114189 -118.044531 103 1221ft 90kts
18-Oct-20 16:12 34.098700 -118.027685 201 648ft 96kts
18-Oct-20 16:13 34.083580 -118.036212 205 286ft 20kts
18-Oct-20 16:15 34.082923 -118.035631 110 285ft 5kts
18-Oct-20 16:16 34.082915 -118.035605 110 285ft 0kts

Navigation Log

Ident Type
Flight plan parsing failed, navigation log unavailable